Time;durP1;ratioP1;P1;durP2;ratioP2;P2;SDS_P1;SDS_P2;PMS_P1;PMS_P2;Temp;Humidity;BMP_temperature;BMP_pressure;BME280_temperature;BME280_humidity;BME280_pressure;Samples;Min_cycle;Max_cycle;Signal;HPM_P1;HPM_P2
2023/12/16 00:01:49;;;;;;;13.30;7.10;;;7.40;99.90;;;;;;5102736;28;20055;-86
2023/12/16 00:04:15;;;;;;;17.02;7.43;;;7.40;99.90;;;;;;5083168;28;20020;-86
2023/12/16 00:06:41;;;;;;;16.30;7.55;;;7.40;99.90;;;;;;5085598;28;20098;-87
2023/12/16 00:09:06;;;;;;;14.48;7.28;;;7.40;99.90;;;;;;5087682;28;20028;-86
2023/12/16 00:11:32;;;;;;;16.25;7.82;;;7.40;99.90;;;;;;5098380;28;20036;-85
2023/12/16 00:13:57;;;;;;;16.10;7.70;;;7.40;99.90;;;;;;5097874;28;20059;-85
2023/12/16 00:16:25;;;;;;;12.82;7.40;;;7.40;99.90;;;;;;5099742;28;20023;-85
2023/12/16 00:18:51;;;;;;;16.90;7.78;;;7.40;99.90;;;;;;5098861;28;20096;-85
2023/12/16 00:21:17;;;;;;;16.55;7.90;;;7.40;99.90;;;;;;5099657;28;20449;-84
2023/12/16 00:23:43;;;;;;;13.55;7.85;;;7.40;99.90;;;;;;5098735;28;20032;-86
2023/12/16 00:26:08;;;;;;;14.48;7.47;;;7.30;99.90;;;;;;5099580;28;20020;-86
2023/12/16 00:28:34;;;;;;;15.57;7.78;;;7.40;99.90;;;;;;5099583;28;20027;-85
2023/12/16 00:30:59;;;;;;;16.02;7.15;;;7.30;99.90;;;;;;5099017;28;20606;-85
2023/12/16 00:33:25;;;;;;;17.80;8.13;;;7.30;99.90;;;;;;5099404;28;20487;-86
2023/12/16 00:35:50;;;;;;;15.02;7.70;;;7.30;99.90;;;;;;5116949;28;20104;-86
2023/12/16 00:38:16;;;;;;;14.55;6.90;;;7.30;99.90;;;;;;5117397;28;20399;-86
2023/12/16 00:40:42;;;;;;;16.00;7.72;;;7.40;99.90;;;;;;5116566;28;20047;-86
2023/12/16 00:43:08;;;;;;;12.73;6.88;;;7.30;99.90;;;;;;5098870;28;20369;-85
2023/12/16 00:45:33;;;;;;;16.20;7.30;;;7.30;99.90;;;;;;5099445;28;20028;-85
2023/12/16 00:47:59;;;;;;;14.23;7.55;;;7.30;99.90;;;;;;5098851;28;20564;-86
2023/12/16 00:50:24;;;;;;;17.10;8.02;;;7.30;99.90;;;;;;5098934;28;20019;-85
2023/12/16 00:52:50;;;;;;;15.13;8.07;;;7.30;99.90;;;;;;5098733;28;20027;-86
2023/12/16 00:55:16;;;;;;;14.93;7.88;;;7.30;99.90;;;;;;5116912;28;20058;-85
2023/12/16 00:57:42;;;;;;;14.95;8.18;;;7.30;99.90;;;;;;5116569;28;20376;-87
2023/12/16 01:00:08;;;;;;;18.08;8.27;;;7.30;99.90;;;;;;5117149;28;20024;-85
2023/12/16 01:02:34;;;;;;;14.35;8.10;;;7.30;99.90;;;;;;5116765;28;20024;-86
2023/12/16 01:04:59;;;;;;;15.57;7.50;;;7.30;99.90;;;;;;5116102;28;20032;-86
2023/12/16 01:07:25;;;;;;;14.93;7.45;;;7.30;99.90;;;;;;5098790;28;20123;-86
2023/12/16 01:09:51;;;;;;;17.17;8.50;;;7.30;99.90;;;;;;5098391;28;20063;-86
2023/12/16 01:12:17;;;;;;;15.32;7.50;;;7.30;99.90;;;;;;5098501;28;20549;-86
2023/12/16 01:14:42;;;;;;;15.13;7.65;;;7.30;99.90;;;;;;5116138;28;20032;-87
2023/12/16 01:17:08;;;;;;;16.70;7.90;;;7.30;99.90;;;;;;5097235;28;20019;-86
2023/12/16 01:19:34;;;;;;;16.10;7.60;;;7.20;99.90;;;;;;5098660;28;20376;-86
2023/12/16 01:21:59;;;;;;;14.65;7.78;;;7.20;99.90;;;;;;5098180;28;20065;-86
2023/12/16 01:24:25;;;;;;;13.77;7.60;;;7.30;99.90;;;;;;5098572;28;20057;-85
2023/12/16 01:26:50;;;;;;;16.70;7.93;;;7.20;99.90;;;;;;5097728;28;20091;-86
2023/12/16 01:29:17;;;;;;;16.80;8.43;;;7.30;99.90;;;;;;5116478;28;20540;-86
2023/12/16 01:31:42;;;;;;;17.90;8.32;;;7.20;99.90;;;;;;5116379;28;20445;-88
2023/12/16 01:34:08;;;;;;;18.65;8.93;;;7.30;99.90;;;;;;5098262;28;20049;-84
2023/12/16 01:36:34;;;;;;;14.55;7.80;;;7.30;99.90;;;;;;5098367;28;20494;-87
2023/12/16 01:38:59;;;;;;;15.02;8.15;;;7.20;99.90;;;;;;5097589;28;20058;-87
2023/12/16 01:41:25;;;;;;;14.40;8.05;;;7.20;99.90;;;;;;5094608;28;20101;-87
2023/12/16 01:43:51;;;;;;;15.07;8.10;;;7.20;99.90;;;;;;5094060;28;20047;-87
2023/12/16 01:46:17;;;;;;;15.38;8.38;;;7.20;99.90;;;;;;5094622;28;20096;-86
2023/12/16 01:48:43;;;;;;;16.65;7.75;;;7.20;99.90;;;;;;5094436;28;20543;-87
2023/12/16 01:51:09;;;;;;;13.90;7.80;;;7.20;99.90;;;;;;5094198;28;20081;-87
2023/12/16 01:53:35;;;;;;;16.50;8.30;;;7.20;99.90;;;;;;5094264;28;20052;-87
2023/12/16 01:56:01;;;;;;;14.95;7.70;;;7.20;99.90;;;;;;5094024;28;20130;-87
2023/12/16 01:58:27;;;;;;;12.10;7.15;;;7.20;99.90;;;;;;5095369;28;20501;-87
2023/12/16 02:00:53;;;;;;;16.08;7.25;;;7.20;99.90;;;;;;5094689;28;20048;-87
2023/12/16 02:03:20;;;;;;;14.82;7.55;;;7.20;99.90;;;;;;5094271;28;20031;-86
2023/12/16 02:05:46;;;;;;;15.38;8.45;;;7.20;99.90;;;;;;5094022;28;20027;-88
2023/12/16 02:08:11;;;;;;;14.60;7.40;;;7.20;99.90;;;;;;5094149;28;20020;-87
2023/12/16 02:10:37;;;;;;;11.98;7.28;;;7.20;99.90;;;;;;5095325;28;20510;-86
2023/12/16 02:13:04;;;;;;;16.05;7.75;;;7.20;99.90;;;;;;5093908;28;20093;-86
2023/12/16 02:15:30;;;;;;;15.43;7.38;;;7.20;99.90;;;;;;5095438;28;20032;-86
2023/12/16 02:17:56;;;;;;;16.63;7.53;;;7.20;99.90;;;;;;5093712;28;20468;-87
2023/12/16 02:20:22;;;;;;;11.90;7.10;;;7.20;99.90;;;;;;5095085;28;20031;-86
2023/12/16 02:22:48;;;;;;;15.40;8.10;;;7.20;99.90;;;;;;5093677;28;20035;-87
2023/12/16 02:25:15;;;;;;;18.58;7.85;;;7.20;99.90;;;;;;5094834;28;20040;-86
2023/12/16 02:27:41;;;;;;;14.40;7.38;;;7.10;99.90;;;;;;5093651;28;20035;-86
2023/12/16 02:30:09;;;;;;;13.93;6.78;;;7.20;99.90;;;;;;5094446;28;20028;-86
2023/12/16 02:32:34;;;;;;;15.07;6.82;;;7.10;99.90;;;;;;5093941;28;20024;-86
2023/12/16 02:35:00;;;;;;;13.10;7.47;;;7.10;99.90;;;;;;5093494;28;20032;-86
2023/12/16 02:37:26;;;;;;;11.65;6.40;;;7.10;99.90;;;;;;5094860;28;20099;-86
2023/12/16 02:39:51;;;;;;;15.38;7.18;;;7.20;99.90;;;;;;5092957;28;20048;-87
2023/12/16 02:42:17;;;;;;;15.77;7.50;;;7.20;99.90;;;;;;5094000;28;20036;-86
2023/12/16 02:44:43;;;;;;;13.07;7.00;;;7.10;99.90;;;;;;5093760;28;20032;-87
2023/12/16 02:47:08;;;;;;;13.98;6.70;;;7.10;99.90;;;;;;5093113;28;20475;-86
2023/12/16 02:49:34;;;;;;;16.98;8.27;;;7.20;99.90;;;;;;5093795;28;20058;-86
2023/12/16 02:52:00;;;;;;;13.02;6.82;;;7.20;99.90;;;;;;5094030;28;20103;-86
2023/12/16 02:54:27;;;;;;;13.77;7.20;;;7.20;99.90;;;;;;5094468;28;20032;-86
2023/12/16 02:56:52;;;;;;;13.43;7.18;;;7.10;99.90;;;;;;5093050;28;20446;-86
2023/12/16 02:59:18;;;;;;;14.40;7.90;;;7.20;99.90;;;;;;5093572;28;20061;-86
2023/12/16 03:01:43;;;;;;;13.13;6.88;;;7.10;99.90;;;;;;5093645;28;20459;-86
2023/12/16 03:04:09;;;;;;;14.10;7.13;;;7.10;99.90;;;;;;5092877;28;20024;-86
2023/12/16 03:06:35;;;;;;;14.70;7.30;;;7.10;99.90;;;;;;5093393;28;20028;-86
2023/12/16 03:09:02;;;;;;;13.77;7.63;;;7.20;99.90;;;;;;5092781;28;20029;-85
2023/12/16 03:11:27;;;;;;;14.57;6.88;;;7.20;99.90;;;;;;5093220;28;20028;-85
2023/12/16 03:13:53;;;;;;;15.50;6.97;;;7.20;99.90;;;;;;5092752;28;20077;-85
2023/12/16 03:16:19;;;;;;;15.38;7.93;;;7.20;99.90;;;;;;5093984;28;20051;-85
2023/12/16 03:18:44;;;;;;;14.85;7.10;;;7.10;99.90;;;;;;5094164;28;20024;-84
2023/12/16 03:21:10;;;;;;;15.82;6.97;;;7.10;99.90;;;;;;5092227;28;20031;-85
2023/12/16 03:23:36;;;;;;;14.05;6.93;;;7.10;99.90;;;;;;5092840;28;20481;-84
2023/12/16 03:26:02;;;;;;;13.45;7.32;;;7.10;99.90;;;;;;5093349;28;20510;-85
2023/12/16 03:28:28;;;;;;;13.07;6.82;;;7.10;99.90;;;;;;5092949;28;20032;-85
2023/12/16 03:30:54;;;;;;;12.50;7.53;;;7.10;99.90;;;;;;5092654;28;20024;-85
2023/12/16 03:33:20;;;;;;;15.07;7.43;;;7.00;99.90;;;;;;5092532;28;20485;-85
2023/12/16 03:35:45;;;;;;;13.25;7.30;;;7.10;99.90;;;;;;5093041;28;20031;-85
2023/12/16 03:38:11;;;;;;;13.60;6.82;;;7.10;99.90;;;;;;5092574;28;20024;-85
2023/12/16 03:40:36;;;;;;;15.90;7.20;;;7.00;99.90;;;;;;5107139;28;20051;-85
2023/12/16 03:43:02;;;;;;;12.85;6.47;;;7.00;99.90;;;;;;5100169;28;20480;-84
2023/12/16 03:45:27;;;;;;;16.60;8.20;;;7.00;99.90;;;;;;5118521;28;20024;-84
2023/12/16 03:47:53;;;;;;;12.88;7.10;;;7.00;99.90;;;;;;5099976;28;20024;-86
2023/12/16 03:50:19;;;;;;;16.33;8.13;;;7.00;99.90;;;;;;5100196;28;20024;-84
2023/12/16 03:52:44;;;;;;;14.93;7.70;;;7.00;99.90;;;;;;5100255;28;20030;-85
2023/12/16 03:55:10;;;;;;;14.95;8.00;;;7.00;99.90;;;;;;5117726;28;20537;-84
2023/12/16 03:57:36;;;;;;;13.95;7.30;;;6.90;99.90;;;;;;5100061;28;20023;-85
2023/12/16 04:00:02;;;;;;;17.00;8.07;;;7.00;99.90;;;;;;5099447;28;20031;-85
2023/12/16 04:02:27;;;;;;;15.98;7.15;;;6.90;99.90;;;;;;5117989;28;20092;-85
2023/12/16 04:04:53;;;;;;;13.77;7.97;;;6.90;99.90;;;;;;5099563;28;20099;-86
2023/12/16 04:07:18;;;;;;;15.65;8.05;;;6.90;99.90;;;;;;5099656;28;20392;-84
2023/12/16 04:09:45;;;;;;;14.52;7.97;;;6.90;99.90;;;;;;5100140;28;20031;-85
2023/12/16 04:12:11;;;;;;;17.08;7.85;;;6.80;99.90;;;;;;5099395;28;20077;-85
2023/12/16 04:14:38;;;;;;;14.52;7.72;;;6.90;99.90;;;;;;5099817;28;20054;-85
2023/12/16 04:17:04;;;;;;;18.50;8.38;;;6.80;99.90;;;;;;5117343;28;20072;-85
2023/12/16 04:19:29;;;;;;;16.00;7.82;;;6.80;99.90;;;;;;5099692;28;20027;-85
2023/12/16 04:21:55;;;;;;;15.23;7.90;;;6.80;99.90;;;;;;5099134;28;20024;-84
2023/12/16 04:24:21;;;;;;;15.68;7.65;;;6.80;99.90;;;;;;5117642;28;20042;-83
2023/12/16 04:26:46;;;;;;;14.85;7.75;;;6.80;99.90;;;;;;5117409;28;20028;-85
2023/12/16 04:29:12;;;;;;;16.55;7.80;;;6.80;99.90;;;;;;5099292;28;20115;-84
2023/12/16 04:31:38;;;;;;;15.40;7.72;;;6.80;99.90;;;;;;5099961;28;20035;-87
2023/12/16 04:34:04;;;;;;;16.70;7.95;;;6.80;99.90;;;;;;5098886;28;20559;-87
2023/12/16 04:36:30;;;;;;;16.45;8.18;;;6.80;99.90;;;;;;5117163;28;20110;-87
2023/12/16 04:38:56;;;;;;;16.90;8.38;;;6.80;99.90;;;;;;5098631;28;20139;-88
2023/12/16 04:41:21;;;;;;;14.85;8.15;;;6.70;99.90;;;;;;5117116;28;20055;-87
2023/12/16 04:43:47;;;;;;;14.18;7.57;;;6.70;99.90;;;;;;5116760;28;20035;-86
2023/12/16 04:46:17;;;;;;;13.52;7.78;;;6.70;99.90;;;;;;5116865;28;20035;-87
2023/12/16 04:48:43;;;;;;;16.38;8.07;;;6.70;99.90;;;;;;5099208;28;20027;-86
2023/12/16 04:51:08;;;;;;;17.70;8.23;;;6.70;99.90;;;;;;5098610;28;20028;-87
2023/12/16 04:53:34;;;;;;;13.40;8.02;;;6.70;99.90;;;;;;5117290;28;20027;-86
2023/12/16 04:56:00;;;;;;;15.48;7.63;;;6.70;99.90;;;;;;5098425;28;20031;-87
2023/12/16 04:58:26;;;;;;;17.27;8.18;;;6.70;99.90;;;;;;5098858;28;20040;-87
2023/12/16 05:00:52;;;;;;;17.85;8.48;;;6.70;99.90;;;;;;5116813;28;20026;-86
2023/12/16 05:03:18;;;;;;;17.25;8.55;;;6.70;99.90;;;;;;5116238;28;20105;-86
2023/12/16 05:05:43;;;;;;;17.00;8.05;;;6.70;99.90;;;;;;5116612;28;20055;-86
2023/12/16 05:08:10;;;;;;;18.50;8.73;;;6.70;99.90;;;;;;5098365;28;20030;-87
2023/12/16 05:10:36;;;;;;;15.80;8.48;;;6.70;99.90;;;;;;5098753;28;20035;-87
2023/12/16 05:13:02;;;;;;;16.10;8.52;;;6.60;99.90;;;;;;5116257;28;20032;-87
2023/12/16 05:15:27;;;;;;;16.13;8.63;;;6.70;99.90;;;;;;5099033;28;20050;-86
2023/12/16 05:17:53;;;;;;;16.77;8.15;;;6.70;99.90;;;;;;5116665;28;20027;-86
2023/12/16 05:20:18;;;;;;;15.52;8.10;;;6.70;99.90;;;;;;5098139;28;20106;-87
2023/12/16 05:22:44;;;;;;;17.45;8.15;;;6.70;99.90;;;;;;5098402;28;20024;-86
2023/12/16 05:25:10;;;;;;;16.30;8.02;;;6.70;99.90;;;;;;5098007;28;20070;-87
2023/12/16 05:27:36;;;;;;;15.82;8.25;;;6.70;99.90;;;;;;5098506;28;20099;-86
2023/12/16 05:30:02;;;;;;;18.10;9.18;;;6.70;99.90;;;;;;5098088;28;20061;-87
2023/12/16 05:32:28;;;;;;;15.02;8.13;;;6.70;99.90;;;;;;5098211;28;20032;-87
2023/12/16 05:34:54;;;;;;;15.10;8.57;;;6.70;99.90;;;;;;5098283;28;20032;-87
2023/12/16 05:37:20;;;;;;;17.73;7.93;;;6.70;99.90;;;;;;5097835;28;20023;-86
2023/12/16 05:39:46;;;;;;;17.90;8.73;;;6.70;99.90;;;;;;5097938;28;20495;-87
2023/12/16 05:42:12;;;;;;;17.20;9.02;;;6.70;99.90;;;;;;5115557;28;20491;-86
2023/12/16 05:44:37;;;;;;;22.48;9.40;;;6.70;99.90;;;;;;5097632;28;20039;-86
2023/12/16 05:47:05;;;;;;;18.08;9.23;;;6.70;99.90;;;;;;5097209;28;20028;-87
2023/12/16 05:49:30;;;;;;;18.27;9.52;;;6.70;99.90;;;;;;5097557;28;20023;-86
2023/12/16 05:51:56;;;;;;;20.17;9.02;;;6.70;99.90;;;;;;5097596;28;20076;-86
2023/12/16 05:54:24;;;;;;;18.60;9.23;;;6.70;99.90;;;;;;5096844;28;20020;-86
2023/12/16 05:56:50;;;;;;;18.15;9.50;;;6.70;99.90;;;;;;5097514;28;20030;-86
2023/12/16 05:59:15;;;;;;;17.92;8.80;;;6.70;99.90;;;;;;5097051;28;20024;-87
2023/12/16 06:01:41;;;;;;;16.52;9.02;;;6.70;99.90;;;;;;5097545;28;20034;-86
2023/12/16 06:04:06;;;;;;;18.88;9.38;;;6.70;99.90;;;;;;5096267;28;20178;-87
2023/12/16 06:06:32;;;;;;;18.25;9.10;;;6.70;99.90;;;;;;5097213;28;20031;-87
2023/12/16 06:08:58;;;;;;;22.08;9.48;;;6.70;99.90;;;;;;5097329;28;20024;-89
2023/12/16 06:11:23;;;;;;;19.58;8.95;;;6.60;99.90;;;;;;5097042;28;20081;-86
2023/12/16 06:13:52;;;;;;;17.05;8.73;;;6.70;99.90;;;;;;5115202;28;20043;-86
2023/12/16 06:16:18;;;;;;;20.13;9.00;;;6.60;99.90;;;;;;5096917;28;20376;-87
2023/12/16 06:18:45;;;;;;;19.92;9.10;;;6.60;99.90;;;;;;5097230;28;20519;-86
2023/12/16 06:21:11;;;;;;;20.35;9.90;;;6.60;99.90;;;;;;5097203;28;20042;-86
2023/12/16 06:23:37;;;;;;;17.13;8.98;;;6.60;99.90;;;;;;5097622;28;20448;-86
2023/12/16 06:26:03;;;;;;;20.10;9.90;;;6.60;99.90;;;;;;5097010;28;20020;-87
2023/12/16 06:28:29;;;;;;;19.23;8.82;;;6.70;99.90;;;;;;5097462;28;20358;-87
2023/12/16 06:30:54;;;;;;;19.63;9.20;;;6.70;99.90;;;;;;5097020;28;20118;-86
2023/12/16 06:33:22;;;;;;;19.65;10.02;;;6.60;99.90;;;;;;5096837;28;20051;-87
2023/12/16 06:35:48;;;;;;;19.35;10.43;;;6.70;99.90;;;;;;5096847;28;20034;-87
2023/12/16 06:38:14;;;;;;;18.75;8.90;;;6.70;99.90;;;;;;5096028;28;20023;-87
2023/12/16 06:40:39;;;;;;;16.30;8.70;;;6.70;99.90;;;;;;5114830;28;20043;-86
2023/12/16 06:43:05;;;;;;;23.92;9.50;;;6.70;99.90;;;;;;5096788;28;20031;-87
2023/12/16 06:45:31;;;;;;;19.42;9.23;;;6.70;99.90;;;;;;5097070;28;20080;-86
2023/12/16 06:47:57;;;;;;;16.08;8.27;;;6.70;99.90;;;;;;5115166;28;20024;-86
2023/12/16 06:50:23;;;;;;;18.27;9.25;;;6.60;99.90;;;;;;5096506;28;20024;-86
2023/12/16 06:52:49;;;;;;;16.42;8.20;;;6.70;99.90;;;;;;5096389;28;20023;-86
2023/12/16 06:55:15;;;;;;;17.23;7.75;;;6.70;99.90;;;;;;5096303;28;20122;-86
2023/12/16 06:57:40;;;;;;;18.25;8.65;;;6.70;99.90;;;;;;5114730;28;20114;-86
2023/12/16 07:00:07;;;;;;;17.92;9.50;;;6.60;99.90;;;;;;5096364;28;20019;-87
2023/12/16 07:02:32;;;;;;;18.65;8.68;;;6.70;99.90;;;;;;5114650;28;20027;-86
2023/12/16 07:04:58;;;;;;;22.65;9.30;;;6.60;99.90;;;;;;5114656;28;20028;-86
2023/12/16 07:07:25;;;;;;;19.17;9.10;;;6.60;99.90;;;;;;5096244;28;20028;-86
2023/12/16 07:09:51;;;;;;;15.85;8.38;;;6.60;99.90;;;;;;5096919;28;20091;-86
2023/12/16 07:12:17;;;;;;;19.75;8.80;;;6.60;99.90;;;;;;5094937;28;20130;-86
2023/12/16 07:14:43;;;;;;;21.15;8.68;;;6.60;99.90;;;;;;5087078;28;20035;-86
2023/12/16 07:17:09;;;;;;;17.20;8.10;;;6.60;99.90;;;;;;5094962;28;20050;-87
2023/12/16 07:19:34;;;;;;;16.48;8.35;;;6.60;99.90;;;;;;5113053;28;20031;-86
2023/12/16 07:22:01;;;;;;;16.52;8.80;;;6.60;99.90;;;;;;5096178;28;20024;-87
2023/12/16 07:24:26;;;;;;;18.45;8.35;;;6.60;99.90;;;;;;5094555;28;20076;-87
2023/12/16 07:26:52;;;;;;;18.35;8.15;;;6.60;99.90;;;;;;5113237;28;20456;-87
2023/12/16 07:29:18;;;;;;;16.27;7.80;;;6.60;99.90;;;;;;5096624;28;20032;-86
2023/12/16 07:31:52;;;;;;;19.33;8.90;;;6.60;99.90;;;;;;5096340;28;20388;-87
2023/12/16 07:34:18;;;;;;;19.77;8.80;;;6.70;99.90;;;;;;5113755;28;20031;-87
2023/12/16 07:36:44;;;;;;;16.08;8.35;;;6.70;99.90;;;;;;5096300;28;20080;-87
2023/12/16 07:39:09;;;;;;;22.50;9.50;;;6.70;99.90;;;;;;5095658;28;20040;-87
2023/12/16 07:41:35;;;;;;;14.20;7.70;;;6.70;99.90;;;;;;5092493;28;20139;-87
2023/12/16 07:44:01;;;;;;;16.20;8.82;;;6.60;99.90;;;;;;5093872;28;20036;-87
2023/12/16 07:46:27;;;;;;;18.98;9.35;;;6.60;99.90;;;;;;5093463;28;20027;-87
2023/12/16 07:48:53;;;;;;;20.88;8.70;;;6.60;99.90;;;;;;5092843;28;20047;-87
2023/12/16 07:51:25;;;;;;;18.95;8.13;;;6.70;99.90;;;;;;5092512;28;20065;-87
2023/12/16 07:53:50;;;;;;;15.80;8.02;;;6.70;99.90;;;;;;5093100;28;20028;-87
2023/12/16 07:56:27;;;;;;;23.73;8.98;;;6.70;99.90;;;;;;5092486;28;20039;-87
2023/12/16 07:58:53;;;;;;;15.80;7.53;;;6.70;99.90;;;;;;5092879;28;20457;-87
2023/12/16 08:01:19;;;;;;;15.70;7.65;;;6.80;99.90;;;;;;5093405;28;20024;-87
2023/12/16 08:03:46;;;;;;;20.55;7.53;;;6.80;99.90;;;;;;5093610;28;20461;-86
2023/12/16 08:06:14;;;;;;;17.20;6.65;;;6.80;99.90;;;;;;5092012;28;20028;-85
2023/12/16 08:08:41;;;;;;;17.02;7.43;;;6.70;99.90;;;;;;5092776;28;20024;-86
2023/12/16 08:11:08;;;;;;;12.10;6.57;;;6.80;99.90;;;;;;5092204;28;20028;-86
2023/12/16 08:13:34;;;;;;;13.27;6.32;;;6.80;99.90;;;;;;5093074;28;20484;-86
2023/12/16 08:16:01;;;;;;;16.33;7.75;;;6.80;99.90;;;;;;5092977;28;20024;-86
2023/12/16 08:18:28;;;;;;;12.63;6.72;;;6.80;99.90;;;;;;5092162;28;20028;-86
2023/12/16 08:20:54;;;;;;;13.00;6.72;;;6.70;99.90;;;;;;5093730;28;20028;-86
2023/12/16 08:23:20;;;;;;;14.43;7.15;;;6.80;99.90;;;;;;5092259;28;20107;-87
2023/12/16 08:25:47;;;;;;;14.48;6.45;;;6.80;99.90;;;;;;5093470;28;20028;-87
2023/12/16 08:28:13;;;;;;;15.95;6.60;;;6.80;99.90;;;;;;5095783;28;20024;-87
2023/12/16 08:30:39;;;;;;;11.00;5.90;;;6.80;99.90;;;;;;5097083;28;20024;-87
2023/12/16 08:33:05;;;;;;;13.55;6.60;;;6.80;99.90;;;;;;5097405;28;20020;-87
2023/12/16 08:35:30;;;;;;;13.13;6.20;;;6.90;99.90;;;;;;5095797;28;20024;-86
2023/12/16 08:37:56;;;;;;;11.45;5.93;;;6.80;99.90;;;;;;5097323;28;20457;-86
2023/12/16 08:40:22;;;;;;;11.98;6.13;;;6.90;99.90;;;;;;5095174;28;20043;-87
2023/12/16 08:42:48;;;;;;;12.02;6.10;;;6.90;99.90;;;;;;5096319;28;20032;-85
2023/12/16 08:45:15;;;;;;;9.95;5.95;;;6.90;99.90;;;;;;5095566;28;20036;-85
2023/12/16 08:47:40;;;;;;;11.27;6.57;;;6.90;99.90;;;;;;5096811;28;20075;-86
2023/12/16 08:50:07;;;;;;;11.30;6.22;;;6.90;99.90;;;;;;5096190;28;20020;-85
2023/12/16 08:52:34;;;;;;;13.20;6.18;;;6.90;99.90;;;;;;5095698;28;20012;-86
2023/12/16 08:55:01;;;;;;;12.85;5.55;;;6.90;99.90;;;;;;5095994;28;20032;-88
2023/12/16 08:57:29;;;;;;;11.20;5.65;;;6.90;99.90;;;;;;5095287;28;20031;-87
2023/12/16 08:59:55;;;;;;;12.23;5.68;;;7.00;99.90;;;;;;5095871;28;20090;-87
2023/12/16 09:02:21;;;;;;;12.05;5.90;;;7.00;99.90;;;;;;5095108;28;20028;-87
2023/12/16 09:04:46;;;;;;;13.07;6.65;;;7.00;99.90;;;;;;5095528;28;20036;-88
2023/12/16 09:07:12;;;;;;;13.40;6.30;;;7.00;99.90;;;;;;5095247;28;20020;-87
2023/12/16 09:09:38;;;;;;;15.85;6.90;;;7.00;99.90;;;;;;5095306;28;20028;-87
2023/12/16 09:12:05;;;;;;;15.18;6.47;;;7.00;99.90;;;;;;5095359;28;20028;-87
2023/12/16 09:14:31;;;;;;;13.55;6.28;;;7.00;99.90;;;;;;5095904;28;20020;-87
2023/12/16 09:16:56;;;;;;;13.57;7.05;;;7.00;99.90;;;;;;5095291;28;20047;-87
2023/12/16 09:19:22;;;;;;;15.23;6.68;;;7.10;99.90;;;;;;5095795;28;20525;-87
2023/12/16 09:21:48;;;;;;;10.98;6.43;;;7.10;99.90;;;;;;5095454;28;20032;-87
2023/12/16 09:24:14;;;;;;;13.27;6.60;;;7.20;99.90;;;;;;5094736;28;20105;-87
2023/12/16 09:26:40;;;;;;;12.82;6.90;;;7.20;99.90;;;;;;5095220;28;20047;-87
2023/12/16 09:29:05;;;;;;;13.88;6.63;;;7.20;99.90;;;;;;5096015;28;20051;-87
2023/12/16 09:31:31;;;;;;;12.82;6.57;;;7.20;99.90;;;;;;5094428;28;20028;-87
2023/12/16 09:33:57;;;;;;;14.65;6.65;;;7.30;99.90;;;;;;5094913;28;20039;-88
2023/12/16 09:36:27;;;;;;;15.57;6.82;;;7.30;99.90;;;;;;5094578;28;20020;-86
2023/12/16 09:38:54;;;;;;;11.25;5.95;;;7.30;99.90;;;;;;5094101;28;20024;-86
2023/12/16 09:41:22;;;;;;;14.48;6.82;;;7.30;99.90;;;;;;5094400;28;20052;-87
2023/12/16 09:43:53;;;;;;;14.80;6.90;;;7.30;99.90;;;;;;5095956;28;20044;-87
2023/12/16 09:46:21;;;;;;;16.45;6.70;;;7.40;99.90;;;;;;5095589;28;20028;-87
2023/12/16 09:48:46;;;;;;;14.20;7.50;;;7.40;99.90;;;;;;5095662;28;20034;-87
2023/12/16 09:51:13;;;;;;;19.13;7.43;;;7.40;99.90;;;;;;5094124;28;20119;-87
2023/12/16 09:53:39;;;;;;;16.13;7.38;;;7.40;99.90;;;;;;5094691;28;20070;-87
2023/12/16 09:56:05;;;;;;;14.60;7.22;;;7.40;99.90;;;;;;5094535;28;20024;-87
2023/12/16 09:58:33;;;;;;;12.77;7.20;;;7.50;99.90;;;;;;5094111;28;20043;-87
2023/12/16 10:01:01;;;;;;;12.80;7.00;;;7.50;99.90;;;;;;5095615;28;20488;-87
2023/12/16 10:03:27;;;;;;;12.10;6.50;;;7.40;99.90;;;;;;5093886;28;20024;-87
2023/12/16 10:05:52;;;;;;;13.68;6.70;;;7.40;99.90;;;;;;5094655;28;20043;-87
2023/12/16 10:08:18;;;;;;;14.35;6.82;;;7.40;99.90;;;;;;5094226;28;20024;-87
2023/12/16 10:10:43;;;;;;;13.07;7.20;;;7.40;99.90;;;;;;5094305;28;20059;-87
2023/12/16 10:13:09;;;;;;;15.43;7.95;;;7.40;99.90;;;;;;5095290;28;20449;-88
2023/12/16 10:15:36;;;;;;;16.48;6.78;;;7.50;99.90;;;;;;5093594;28;20031;-88
2023/12/16 10:18:03;;;;;;;13.63;6.88;;;7.50;99.90;;;;;;5094239;28;20415;-88
2023/12/16 10:20:29;;;;;;;13.35;6.95;;;7.50;99.90;;;;;;5093573;28;20024;-88
2023/12/16 10:22:56;;;;;;;13.35;7.07;;;7.60;99.90;;;;;;5094264;28;20024;-86
2023/12/16 10:25:21;;;;;;;13.45;7.20;;;7.60;99.90;;;;;;5093357;28;20039;-86
2023/12/16 10:27:49;;;;;;;12.48;7.00;;;7.60;99.90;;;;;;5093914;28;20024;-85
2023/12/16 10:30:15;;;;;;;13.32;6.97;;;7.60;99.90;;;;;;5093530;28;20020;-86
2023/12/16 10:32:40;;;;;;;13.85;7.30;;;7.70;99.90;;;;;;5093850;28;20081;-86
2023/12/16 10:35:07;;;;;;;13.05;6.85;;;7.70;99.90;;;;;;5093692;28;20032;-85
2023/12/16 10:37:33;;;;;;;13.63;7.28;;;7.70;99.90;;;;;;5094358;28;20327;-85
2023/12/16 10:39:59;;;;;;;13.18;7.07;;;7.70;99.90;;;;;;5093542;28;20051;-85
2023/12/16 10:42:25;;;;;;;11.75;6.60;;;7.70;99.90;;;;;;5093236;28;20032;-85
2023/12/16 10:44:52;;;;;;;15.20;7.35;;;7.70;99.90;;;;;;5094480;28;20059;-85
2023/12/16 10:47:18;;;;;;;13.90;6.85;;;7.70;99.90;;;;;;5093232;28;20054;-85
2023/12/16 10:49:45;;;;;;;13.93;7.45;;;7.70;99.90;;;;;;5093044;28;20028;-84
2023/12/16 10:52:19;;;;;;;14.07;7.22;;;7.80;99.90;;;;;;5093644;28;20028;-84
2023/12/16 10:54:50;;;;;;;13.40;6.63;;;7.80;99.90;;;;;;5094512;28;20085;-85
2023/12/16 10:57:38;;;;;;;14.90;7.57;;;7.90;99.90;;;;;;5092906;28;20028;-85
2023/12/16 11:00:05;;;;;;;17.15;6.32;;;7.90;99.90;;;;;;5093433;28;20052;-82
2023/12/16 11:02:36;;;;;;;15.07;6.72;;;7.90;99.90;;;;;;5092894;28;20065;-82
2023/12/16 11:05:18;;;;;;;15.57;6.93;;;7.90;99.90;;;;;;5094223;28;20048;-82
2023/12/16 11:07:45;;;;;;;15.35;6.13;;;7.90;99.90;;;;;;5094410;28;20027;-82
2023/12/16 11:10:10;;;;;;;13.50;6.55;;;7.90;99.90;;;;;;5093984;28;20025;-82
2023/12/16 11:12:38;;;;;;;18.17;6.93;;;7.90;99.90;;;;;;5092553;28;20020;-83
2023/12/16 11:15:05;;;;;;;17.58;7.18;;;8.00;99.90;;;;;;5093330;28;20028;-85
2023/12/16 11:17:54;;;;;;;15.23;7.32;;;8.00;99.90;;;;;;5092821;28;20020;-85
2023/12/16 11:20:25;;;;;;;13.50;6.57;;;8.10;99.90;;;;;;5092812;28;20093;-86
2023/12/16 11:22:52;;;;;;;11.93;6.40;;;8.10;99.90;;;;;;5092745;28;20077;-82
2023/12/16 11:25:19;;;;;;;14.68;6.05;;;8.10;99.90;;;;;;5093749;28;20074;-84
2023/12/16 11:27:49;;;;;;;13.98;6.50;;;8.10;99.90;;;;;;5092814;28;20050;-86
2023/12/16 11:30:16;;;;;;;14.73;6.70;;;8.10;99.90;;;;;;5094122;28;20126;-86
2023/12/16 11:32:45;;;;;;;12.32;5.82;;;8.10;99.90;;;;;;5092953;28;20058;-86
2023/12/16 11:35:11;;;;;;;13.20;5.88;;;8.10;99.90;;;;;;5093209;28;20457;-86
2023/12/16 11:37:37;;;;;;;12.70;6.20;;;8.10;99.90;;;;;;5092845;28;20215;-86
2023/12/16 11:40:04;;;;;;;13.68;6.05;;;8.10;99.90;;;;;;5099512;28;20055;-87
2023/12/16 11:42:46;;;;;;;11.40;5.60;;;8.20;99.90;;;;;;5095895;28;20032;-85
2023/12/16 11:45:38;;;;;;;10.63;5.15;;;8.20;99.90;;;;;;5096316;28;20503;-84
2023/12/16 11:48:08;;;;;;;12.50;5.25;;;8.30;99.90;;;;;;5096339;28;20036;-84
2023/12/16 11:50:37;;;;;;;10.02;5.55;;;8.40;99.90;;;;;;5095971;28;20030;-84
2023/12/16 11:53:04;;;;;;;12.82;5.55;;;8.40;99.90;;;;;;5114137;28;20016;-84
2023/12/16 11:55:30;;;;;;;10.85;5.72;;;8.40;99.90;;;;;;5113705;28;20038;-84
2023/12/16 11:57:56;;;;;;;10.38;5.32;;;8.60;99.90;;;;;;5096281;28;20460;-83
2023/12/16 12:00:22;;;;;;;12.18;4.90;;;8.70;99.90;;;;;;5114277;28;20026;-84
2023/12/16 12:02:51;;;;;;;8.30;4.50;;;8.80;99.90;;;;;;5099979;28;20426;-84
2023/12/16 12:05:17;;;;;;;10.13;4.57;;;8.90;99.90;;;;;;5099989;28;20035;-84
2023/12/16 12:07:43;;;;;;;9.77;5.00;;;9.00;99.90;;;;;;5117479;28;20023;-84
2023/12/16 12:10:09;;;;;;;11.45;5.20;;;9.10;99.90;;;;;;5099877;28;20491;-84
2023/12/16 12:12:35;;;;;;;12.52;5.40;;;9.40;99.90;;;;;;5099529;28;20043;-84
2023/12/16 12:15:01;;;;;;;8.40;4.93;;;9.50;99.90;;;;;;5099822;28;20361;-84
2023/12/16 12:17:28;;;;;;;11.65;4.88;;;9.80;99.90;;;;;;5099326;28;20457;-84
2023/12/16 12:19:55;;;;;;;14.90;5.50;;;10.00;99.90;;;;;;5100031;28;20020;-84
2023/12/16 12:22:22;;;;;;;13.65;4.97;;;10.20;99.90;;;;;;5099353;28;20448;-84
2023/12/16 12:24:48;;;;;;;8.18;4.65;;;10.30;99.90;;;;;;5117751;28;20032;-84
2023/12/16 12:27:13;;;;;;;12.15;4.18;;;10.30;99.90;;;;;;5099720;28;20027;-84
2023/12/16 12:29:58;;;;;;;9.73;4.13;;;10.30;99.90;;;;;;5099125;28;20480;-84
2023/12/16 12:32:25;;;;;;;7.40;3.80;;;10.20;99.90;;;;;;5099295;28;20020;-84
2023/12/16 12:35:07;;;;;;;11.02;4.03;;;10.20;99.90;;;;;;5117594;28;20487;-84
2023/12/16 12:37:46;;;;;;;8.25;3.78;;;10.20;99.90;;;;;;5098903;28;20047;-84
2023/12/16 12:40:12;;;;;;;8.80;4.05;;;10.30;99.90;;;;;;5095709;28;20177;-84
2023/12/16 12:42:51;;;;;;;8.90;3.85;;;10.30;99.90;;;;;;5096639;28;20081;-84
2023/12/16 12:45:24;;;;;;;8.65;4.47;;;10.30;99.90;;;;;;5096171;28;20036;-84